< < Back
Terminal Aerodrome Forecast


Current Version              Previous Versions:   1  2  3  4  5  6  7  8  9  

Terminal Aerodrome Forecast

447
FTUS42 KILM 291128 CCA
TAFILM
TAF COR
KILM 291128Z 2912/3012 32004KT P6SM SCT015
      TEMPO 2913/2915 4SM BR BKN010
     FM291500 02007KT P6SM SCT045
     FM300000 16003KT P6SM SKC=

Latest METAR

414
SAUS70 KWBC 291400 RRF
MTRILM
METAR KILM 291353Z 34011KT 10SM BKN015 23/18 A2996 RMK AO2 SLP143
T02280183


USA.gov is the U.S. government's official web portal to all federal, state and local government web resources and services.